EDT,Max TemperatureF,Mean TemperatureF,Min TemperatureF,Max Dew PointF,MeanDew PointF,Min DewpointF,Max Humidity, Mean Humidity, Min Humidity, Max Sea Level PressureIn, Mean Sea Level PressureIn, Min Sea Level PressureIn, Max VisibilityMiles, Mean VisibilityMiles, Min VisibilityMiles, Max Wind SpeedMPH, Mean Wind SpeedMPH, Max Gust SpeedMPH,PrecipitationIn, CloudCover, Events, WindDirDegrees
2012-9-1,88,81,74,75,72,69,87,73,59,30.09,30.03,29.94,10,8,0,29,8,36,0.99,6,Rain-Thunderstorm,172
2012-9-2,80,77,74,73,72,69,100,88,76,29.95,29.85,29.78,10,6,1,20,10,24,1.02,8,Rain,147
2012-9-3,83,79,75,73,72,71,94,84,74,29.88,29.83,29.79,10,8,5,16,7,17,T,7,Rain,161
2012-9-4,90,82,74,72,71,70,93,74,55,29.92,29.87,29.83,10,8,5,24,3,145,T,7,,171
2012-9-5,92,81,70,73,70,67,93,73,52,29.90,29.86,29.80,10,6,0,36,4,49,0.93,5,Fog-Rain-Thunderstorm,315
2012-9-6,88,79,69,70,68,66,90,73,55,29.98,29.93,29.88,10,6,2,10,3,12,0.00,5,,225
2012-9-7,91,80,68,70,68,65,90,69,47,29.94,29.83,29.68,10,8,5,31,8,43,0.39,4,Rain-Thunderstorm,183
2012-9-8,76,68,60,67,59,48,90,64,38,29.96,29.81,29.68,10,8,2,29,9,39,0.59,6,Rain-Thunderstorm,308
2012-9-9,79,68,57,54,52,49,80,59,37,30.08,29.98,29.92,10,10,10,17,8,22,0.00,1,,283
2012-9-10,80,69,58,55,51,47,86,59,32,30.20,30.14,30.08,10,10,10,14,5,,0.00,1,,62
2012-9-11,82,71,59,56,52,50,75,55,35,30.25,30.20,30.16,10,10,10,12,4,25,0.00,1,,143
2012-9-12,84,73,62,61,57,55,84,62,40,30.28,30.22,30.19,10,10,9,13,5,16,0.00,3,,163
2012-9-13,84,75,65,61,59,56,87,64,40,30.30,30.23,30.19,10,9,5,10,3,23,0.00,6,,167
2012-9-14,84,73,62,63,59,54,93,70,46,30.28,30.23,30.20,10,8,6,21,6,24,0.00,5,,5
2012-9-15,77,66,55,53,48,43,80,56,31,30.31,30.24,30.14,10,10,10,15,6,20,0.00,7,,50
2012-9-16,79,70,60,63,54,48,78,59,40,30.14,30.08,30.01,10,10,9,9,3,13,0.01,5,,205
2012-9-17,70,69,67,66,65,62,93,86,78,30.01,29.88,29.75,10,7,5,12,5,14,0.04,8,Rain,133
2012-9-18,71,63,54,66,55,37,93,63,33,30.05,29.80,29.66,10,8,5,20,10,36,T,6,Rain,299
2012-9-19,71,58,45,43,38,33,82,54,25,30.18,30.12,30.07,10,10,10,9,2,16,0.00,0,,150
2012-9-20,79,64,49,53,47,43,86,61,35,30.09,30.01,29.93,10,10,10,17,8,22,0.00,3,,190
2012-9-21,78,68,58,60,56,53,86,68,49,30.01,29.91,29.77,10,10,7,23,8,31,0.00,6,,194
2012-9-22,76,63,50,57,46,31,84,54,24,30.17,29.96,29.78,10,10,8,28,12,37,0.00,2,,284
2012-9-23,67,55,42,40,37,35,82,58,34,30.27,30.23,30.17,10,10,10,12,4,20,0.00,1,,306
2012-9-24,70,56,42,42,38,32,89,57,25,30.30,30.20,30.07,10,10,8,13,4,25,0.00,1,,162
2012-9-25,75,65,55,61,53,42,84,69,53,30.11,30.04,29.95,10,8,2,31,8,40,0.58,8,Rain-Thunderstorm,158
2012-9-26,81,73,64,66,62,57,93,76,58,30.15,30.07,30.01,10,8,1,26,7,36,1.05,8,Rain-Thunderstorm,216
2012-9-27,78,72,65,65,63,62,93,77,60,30.14,30.11,30.07,10,8,6,21,5,29,0.02,7,Rain-Thunderstorm,232
2012-9-28,79,71,62,66,64,51,93,76,58,30.11,30.06,30.01,10,5,2,13,4,16,0.21,7,Rain,297
2012-9-29,76,65,53,59,54,49,90,68,46,30.06,30.01,29.96,10,8,2,12,4,16,0.00,5,,328
2012-9-30,75,64,53,56,52,48,93,67,41,29.96,29.88,29.82,10,8,4,14,6,17,0.00,7,,284